createdAt,value
2018-09-28T00:01:28.059Z,101052.27
2018-09-28T00:06:25.519Z,101042.30
2018-09-28T00:11:22.984Z,101050.63
2018-09-28T00:16:20.479Z,101062.05
2018-09-28T00:21:17.915Z,101054.08
2018-09-28T00:26:15.401Z,101052.61
2018-09-28T00:31:12.831Z,101059.55
2018-09-28T00:36:10.288Z,101061.05
2018-09-28T00:41:07.729Z,101044.75
2018-09-28T00:46:05.149Z,101050.95
2018-09-28T00:51:02.571Z,101067.32
2018-09-28T00:56:00.055Z,101073.55
2018-09-28T01:00:57.559Z,101065.66
2018-09-28T01:05:55.005Z,101053.20
2018-09-28T01:10:52.506Z,101046.80
2018-09-28T01:15:50.195Z,101044.41
2018-09-28T01:20:47.641Z,101045.05
2018-09-28T01:25:45.208Z,101045.17
2018-09-28T01:30:46.763Z,101045.98
2018-09-28T01:35:44.272Z,101039.78
2018-09-28T01:40:41.705Z,101037.08
2018-09-28T01:45:39.176Z,101038.98
2018-09-28T01:50:36.612Z,101042.58
2018-09-28T01:55:34.100Z,101053.63
2018-09-28T02:00:31.552Z,101050.63
2018-09-28T02:05:29.011Z,101068.86
2018-09-28T02:10:26.446Z,101067.10
2018-09-28T02:15:23.864Z,101063.33
2018-09-28T02:20:21.315Z,101071.50
2018-09-28T02:25:18.784Z,101062.09
2018-09-28T02:30:16.249Z,101053.23
2018-09-28T02:35:13.697Z,101055.19
2018-09-28T02:40:11.147Z,101053.53
2018-09-28T02:45:08.591Z,101049.95
2018-09-28T02:50:06.275Z,101042.05
2018-09-28T02:55:03.760Z,101033.42
2018-09-28T03:00:01.229Z,101040.23
2018-09-28T03:04:58.652Z,101045.22
2018-09-28T03:09:56.108Z,101050.00
2018-09-28T03:14:53.568Z,101065.61
2018-09-28T03:19:51.021Z,101075.61
2018-09-28T03:24:48.529Z,101085.36
2018-09-28T03:29:45.965Z,101084.49
2018-09-28T03:34:43.389Z,101081.08
2018-09-28T03:39:40.814Z,101082.95
2018-09-28T03:44:38.257Z,101079.30
2018-09-28T03:49:35.728Z,101068.34
2018-09-28T03:54:34.218Z,101079.98
2018-09-28T03:59:31.713Z,101090.67
2018-09-28T04:04:29.117Z,101090.87
2018-09-28T04:09:26.553Z,101092.32
2018-09-28T04:14:23.989Z,101084.51
2018-09-28T04:19:21.461Z,101087.11
2018-09-28T04:24:22.985Z,101081.95
2018-09-28T04:29:20.469Z,101073.95
2018-09-28T04:34:17.969Z,101093.81
2018-09-28T04:39:15.684Z,101106.39
2018-09-28T04:44:13.226Z,101108.95
2018-09-28T04:49:11.229Z,101111.75
2018-09-28T04:54:13.710Z,101113.67
2018-09-28T04:59:11.280Z,101130.49
2018-09-28T05:04:08.780Z,101138.91
2018-09-28T05:09:10.567Z,101146.75
2018-09-28T05:14:08.148Z,101143.17
2018-09-28T05:19:05.604Z,101158.92
2018-09-28T05:24:11.434Z,101169.23
2018-09-28T05:29:08.921Z,101175.71
2018-09-28T05:34:06.438Z,101175.81
2018-09-28T05:39:06.315Z,101184.65
2018-09-28T05:44:03.874Z,101183.56
2018-09-28T05:49:01.337Z,101184.65
2018-09-28T05:54:28.956Z,101196.77
2018-09-28T05:59:31.930Z,101209.23
2018-09-28T06:05:37.700Z,101221.98
2018-09-28T06:10:35.089Z,101233.68
2018-09-28T06:15:32.553Z,101243.98
2018-09-28T06:20:30.700Z,101250.30
2018-09-28T06:25:28.408Z,101249.06
2018-09-28T06:30:25.909Z,101252.72
2018-09-28T06:35:23.370Z,101250.19
2018-09-28T06:40:20.853Z,101264.63
2018-09-28T06:45:18.325Z,101267.37
2018-09-28T06:50:15.829Z,101280.39
2018-09-28T06:55:13.298Z,101274.66
2018-09-28T07:00:10.792Z,101291.73
2018-09-28T07:05:08.238Z,101295.38
2018-09-28T07:10:05.729Z,101295.31
2018-09-28T07:15:03.281Z,101304.93
2018-09-28T07:20:00.732Z,101303.77
2018-09-28T07:24:59.365Z,101314.89
2018-09-28T07:29:57.033Z,101319.93
2018-09-28T07:34:54.356Z,101328.39
2018-09-28T07:39:51.810Z,101329.56
2018-09-28T07:44:49.285Z,101336.41
2018-09-28T07:49:46.750Z,101342.53
2018-09-28T07:54:45.403Z,101336.20
2018-09-28T07:59:42.870Z,101331.59
2018-09-28T08:04:40.311Z,101339.45
2018-09-28T08:09:37.761Z,101351.38
2018-09-28T08:14:35.221Z,101367.88
2018-09-28T08:19:32.659Z,101368.80
2018-09-28T08:24:36.276Z,101377.43
2018-09-28T08:29:33.784Z,101382.78
2018-09-28T08:34:31.314Z,101401.39
2018-09-28T08:39:28.760Z,101398.60
2018-09-28T08:44:26.199Z,101405.86
2018-09-28T08:49:23.708Z,101410.93
2018-09-28T08:54:28.698Z,101415.65
2018-09-28T08:59:26.244Z,101430.91
2018-09-28T09:04:23.764Z,101436.98
2018-09-28T09:09:21.185Z,101449.64
2018-09-28T09:14:18.630Z,101435.42
2018-09-28T09:19:16.157Z,101458.50
2018-09-28T09:24:17.891Z,101465.69
2018-09-28T09:29:15.378Z,101462.91
2018-09-28T09:34:13.001Z,101466.33
2018-09-28T09:39:11.143Z,101475.19
2018-09-28T09:44:08.783Z,101486.48
2018-09-28T09:49:06.352Z,101475.63
2018-09-28T09:54:07.324Z,101479.06
2018-09-28T09:59:04.909Z,101494.96
2018-09-28T10:04:08.233Z,101490.86
2018-09-28T10:09:10.159Z,101484.37
2018-09-28T10:14:07.641Z,101492.15
2018-09-28T10:19:05.246Z,101497.66
2018-09-28T10:24:05.161Z,101498.36
2018-09-28T10:29:02.709Z,101500.17
2018-09-28T10:34:00.172Z,101505.40
2018-09-28T10:38:57.600Z,101503.63
2018-09-28T10:43:55.064Z,101495.08
2018-09-28T10:48:52.814Z,101504.94
2018-09-28T10:53:56.132Z,101506.89
2018-09-28T10:58:53.730Z,101498.29
2018-09-28T11:03:51.176Z,101494.69
2018-09-28T11:08:48.679Z,101494.50
2018-09-28T11:13:46.133Z,101488.28
2018-09-28T11:18:43.600Z,101479.58
2018-09-28T11:23:42.039Z,101481.25
2018-09-28T11:28:39.800Z,101477.81
2018-09-28T11:33:37.288Z,101476.56
2018-09-28T11:38:34.734Z,101473.72
2018-09-28T11:43:32.184Z,101481.81
2018-09-28T11:48:29.637Z,101481.47
2018-09-28T11:53:27.106Z,101478.98
2018-09-28T11:58:24.651Z,101491.52
2018-09-28T12:03:23.954Z,101484.39
2018-09-28T12:08:24.117Z,101479.03
2018-09-28T12:13:23.669Z,101468.48
2018-09-28T12:18:23.541Z,101483.88
2018-09-28T12:23:26.039Z,101485.30
2018-09-28T12:28:27.270Z,101494.48
2018-09-28T12:33:28.590Z,101489.28
2018-09-28T12:38:29.049Z,101481.14
2018-09-28T12:43:35.028Z,101487.34
2018-09-28T12:48:27.593Z,101485.82
2018-09-28T12:53:30.693Z,101481.11
2018-09-28T13:03:54.144Z,101510.50
2018-09-28T13:09:05.837Z,101501.98
2018-09-28T13:19:15.011Z,101488.73
2018-09-28T13:24:19.582Z,101480.75
2018-09-28T13:29:30.220Z,101487.56
2018-09-28T13:34:31.543Z,101498.48
2018-09-28T13:44:54.945Z,101502.65
2018-09-28T13:49:57.587Z,101494.59
2018-09-28T13:55:04.496Z,101495.32
2018-09-28T14:00:19.067Z,101504.48
2018-09-28T14:05:25.496Z,101505.34
2018-09-28T14:10:27.975Z,101505.73
2018-09-28T14:15:34.560Z,101506.32
2018-09-28T14:20:34.183Z,101508.31
2018-09-28T14:25:40.732Z,101504.69
2018-09-28T14:30:40.043Z,101503.51
2018-09-28T14:35:38.310Z,101503.01
2018-09-28T14:40:37.639Z,101529.75
2018-09-28T14:45:36.254Z,101546.41
2018-09-28T14:50:34.688Z,101537.54
2018-09-28T14:55:33.360Z,101554.56
2018-09-28T15:00:34.584Z,101558.83
2018-09-28T15:05:34.136Z,101560.39
2018-09-28T15:10:33.126Z,101553.86
2018-09-28T15:15:32.004Z,101558.60
2018-09-28T15:20:30.766Z,101563.53
2018-09-28T15:25:30.653Z,101557.48
2018-09-28T15:30:29.033Z,101555.59
2018-09-28T15:35:31.356Z,101555.50
2018-09-28T15:40:30.027Z,101557.08
2018-09-28T15:45:31.447Z,101560.73
2018-09-28T15:50:29.703Z,101559.81
2018-09-28T15:55:28.075Z,101561.80
2018-09-28T16:00:28.364Z,101576.80
2018-09-28T16:05:28.831Z,101579.27
2018-09-28T16:10:27.276Z,101583.12
2018-09-28T16:15:26.382Z,101582.91
2018-09-28T16:20:25.213Z,101599.05
2018-09-28T16:25:24.232Z,101591.38
2018-09-28T16:30:23.905Z,101603.20
2018-09-28T16:35:22.989Z,101618.91
2018-09-28T16:40:24.822Z,101623.85
2018-09-28T16:45:24.795Z,101633.84
2018-09-28T16:50:26.283Z,101643.69
2018-09-28T16:55:26.845Z,101638.39
2018-09-28T17:00:31.253Z,101654.08
2018-09-28T17:05:29.850Z,101655.70
2018-09-28T17:10:32.988Z,101649.20
2018-09-28T17:15:35.132Z,101660.26
2018-09-28T17:20:34.936Z,101681.63
2018-09-28T17:25:33.269Z,101696.77
2018-09-28T17:30:32.709Z,101700.09
2018-09-28T17:35:33.945Z,101703.86
2018-09-28T17:40:32.462Z,101701.03
2018-09-28T17:45:31.140Z,101701.60
2018-09-28T17:50:30.363Z,101716.09
2018-09-28T17:55:29.916Z,101726.94
2018-09-28T18:00:30.053Z,101731.89
2018-09-28T18:05:39.669Z,101733.17
2018-09-28T18:10:40.100Z,101751.13
2018-09-28T18:15:42.904Z,101757.48
2018-09-28T18:20:45.354Z,101764.83
2018-09-28T18:25:45.609Z,101770.53
2018-09-28T18:30:47.807Z,101774.41
2018-09-28T18:35:47.279Z,101781.36
2018-09-28T18:40:51.782Z,101778.06
2018-09-28T18:45:51.060Z,101782.50
2018-09-28T18:50:50.770Z,101794.52
2018-09-28T18:55:49.361Z,101793.28
2018-09-28T19:00:47.730Z,101796.29
2018-09-28T19:05:46.142Z,101796.17
2018-09-28T19:10:44.751Z,101802.02
2018-09-28T19:15:44.926Z,101798.91
2018-09-28T19:20:42.814Z,101809.44
2018-09-28T19:25:41.481Z,101801.06
2018-09-28T19:30:39.856Z,101808.33
2018-09-28T19:35:38.423Z,101812.28
2018-09-28T19:40:36.952Z,101823.03
2018-09-28T19:45:34.971Z,101830.80
2018-09-28T19:50:35.558Z,101838.36
2018-09-28T19:55:34.984Z,101845.96
2018-09-28T20:00:33.038Z,101845.98
2018-09-28T20:05:31.081Z,101849.26
2018-09-28T20:10:29.663Z,101859.78
2018-09-28T20:15:27.608Z,101868.02
2018-09-28T20:20:26.052Z,101871.32
2018-09-28T20:25:24.461Z,101872.45
2018-09-28T20:30:23.824Z,101878.18
2018-09-28T20:35:23.302Z,101869.28
2018-09-28T20:40:21.517Z,101878.59
2018-09-28T20:45:19.952Z,101885.88
2018-09-28T20:50:26.827Z,101892.93
2018-09-28T20:55:27.169Z,101896.73
2018-09-28T21:00:31.463Z,101911.63
2018-09-28T21:05:32.301Z,101910.86
2018-09-28T21:10:32.594Z,101905.48
2018-09-28T21:15:32.718Z,101911.23
2018-09-28T21:20:31.360Z,101911.01
2018-09-28T21:25:30.438Z,101913.59
2018-09-28T21:30:29.016Z,101912.52
2018-09-28T21:35:34.037Z,101912.74
2018-09-28T21:40:32.753Z,101923.92
2018-09-28T21:45:34.600Z,101921.23
2018-09-28T21:50:36.473Z,101928.55
2018-09-28T21:55:39.744Z,101924.80
2018-09-28T22:00:40.047Z,101920.14
2018-09-28T22:05:39.952Z,101929.59
2018-09-28T22:10:40.273Z,101919.61
2018-09-28T22:15:47.067Z,101925.33
2018-09-28T22:20:46.961Z,101911.09
2018-09-28T22:25:48.583Z,101914.67
2018-09-28T22:30:53.250Z,101926.58
2018-09-28T22:35:53.245Z,101935.84
2018-09-28T22:40:53.796Z,101926.55
2018-09-28T22:45:55.350Z,101926.22
2018-09-28T22:51:01.726Z,101928.34
2018-09-28T23:01:21.069Z,101946.71
2018-09-28T23:06:28.250Z,101961.12
2018-09-28T23:11:39.797Z,101966.48
2018-09-28T23:16:48.652Z,101954.71
2018-09-28T23:21:49.953Z,101952.09
2018-09-28T23:26:49.890Z,101959.05
2018-09-28T23:31:59.323Z,101952.23
2018-09-28T23:37:04.327Z,101958.21
2018-09-28T23:42:04.982Z,101943.61
2018-09-28T23:47:26.024Z,101942.53
2018-09-28T23:52:30.629Z,101952.52
2018-09-28T23:57:36.783Z,101946.66
